createdAt,value
2023-06-29T00:01:11.636Z,1.20
2023-06-29T00:04:00.146Z,1.40
2023-06-29T00:06:28.572Z,1.40
2023-06-29T00:08:56.639Z,1.50
2023-06-29T00:11:24.988Z,1.50
2023-06-29T00:13:52.988Z,1.00
2023-06-29T00:16:20.982Z,1.10
2023-06-29T00:18:50.822Z,1.20
2023-06-29T00:21:18.869Z,1.10
2023-06-29T00:23:47.207Z,1.00
2023-06-29T00:26:15.421Z,1.10
2023-06-29T00:28:43.432Z,1.50
2023-06-29T00:31:11.538Z,1.30
2023-06-29T00:33:39.655Z,1.30
2023-06-29T00:36:07.792Z,1.00
2023-06-29T00:38:35.858Z,1.30
2023-06-29T00:41:04.049Z,1.20
2023-06-29T00:43:32.342Z,1.40
2023-06-29T00:46:00.691Z,1.20
2023-06-29T00:48:28.941Z,1.10
2023-06-29T00:50:57.009Z,1.40
2023-06-29T00:53:25.654Z,1.40
2023-06-29T00:55:54.501Z,1.10
2023-06-29T00:58:22.928Z,1.30
2023-06-29T01:00:51.127Z,1.20
2023-06-29T01:03:19.527Z,0.80
2023-06-29T01:05:48.700Z,1.10
2023-06-29T01:08:26.488Z,1.00
2023-06-29T01:10:55.487Z,1.10
2023-06-29T01:13:24.486Z,1.10
2023-06-29T01:15:53.253Z,1.30
2023-06-29T01:18:22.641Z,1.20
2023-06-29T01:20:51.847Z,1.30
2023-06-29T01:23:38.039Z,1.30
2023-06-29T01:26:06.809Z,1.70
2023-06-29T01:28:39.381Z,1.20
2023-06-29T01:31:12.768Z,1.40
2023-06-29T01:33:41.395Z,1.20
2023-06-29T01:36:27.624Z,1.40
2023-06-29T01:39:06.965Z,1.80
2023-06-29T01:41:41.767Z,1.20
2023-06-29T01:44:15.797Z,1.20
2023-06-29T01:46:45.106Z,1.20
2023-06-29T01:49:14.884Z,1.20
2023-06-29T01:51:42.984Z,1.40
2023-06-29T01:54:11.227Z,1.30
2023-06-29T01:56:39.390Z,1.30
2023-06-29T01:59:07.544Z,1.40
2023-06-29T02:01:35.787Z,1.10
2023-06-29T02:04:04.734Z,1.50
2023-06-29T02:06:33.307Z,1.20
2023-06-29T02:09:01.450Z,1.10
2023-06-29T02:11:29.611Z,1.10
2023-06-29T02:13:57.720Z,1.20
2023-06-29T02:16:25.904Z,1.20
2023-06-29T02:18:53.992Z,1.10
2023-06-29T02:21:22.189Z,1.10
2023-06-29T02:23:50.164Z,0.90
2023-06-29T02:26:18.297Z,0.80
2023-06-29T02:28:46.560Z,0.90
2023-06-29T02:31:16.606Z,1.40
2023-06-29T02:33:46.448Z,0.70
2023-06-29T02:36:16.646Z,1.00
2023-06-29T02:38:47.236Z,0.60
2023-06-29T02:41:15.878Z,1.00
2023-06-29T02:43:44.480Z,0.60
2023-06-29T02:46:12.811Z,0.80
2023-06-29T02:48:41.029Z,0.80
2023-06-29T02:51:10.224Z,0.90
2023-06-29T02:53:38.802Z,0.90
2023-06-29T02:56:06.972Z,0.90
2023-06-29T02:58:35.699Z,1.00
2023-06-29T03:01:04.638Z,0.90
2023-06-29T03:03:32.960Z,0.90
2023-06-29T03:06:02.159Z,0.90
2023-06-29T03:08:31.260Z,0.80
2023-06-29T03:10:59.776Z,1.00
2023-06-29T03:13:28.535Z,0.70
2023-06-29T03:16:00.434Z,0.70
2023-06-29T03:18:28.994Z,0.80
2023-06-29T03:20:58.152Z,1.00
2023-06-29T03:23:26.283Z,0.90
2023-06-29T03:25:54.426Z,1.20
2023-06-29T03:28:22.508Z,1.20
2023-06-29T03:30:50.724Z,1.30
2023-06-29T03:33:18.722Z,1.30
2023-06-29T03:35:47.026Z,1.40
2023-06-29T03:38:15.070Z,1.50
2023-06-29T03:40:43.567Z,1.30
2023-06-29T03:43:11.481Z,1.70
2023-06-29T03:45:39.656Z,1.60
2023-06-29T03:48:07.651Z,1.60
2023-06-29T03:50:35.857Z,1.80
2023-06-29T03:53:04.113Z,1.40
2023-06-29T03:55:32.140Z,1.40
2023-06-29T03:58:00.952Z,1.10
2023-06-29T04:00:29.152Z,1.60
2023-06-29T04:02:57.326Z,1.30
2023-06-29T04:05:28.380Z,1.20
2023-06-29T04:07:56.350Z,0.90
2023-06-29T04:10:24.343Z,1.00
2023-06-29T04:12:52.345Z,1.20
2023-06-29T04:15:20.521Z,1.00
2023-06-29T04:17:48.695Z,0.90
2023-06-29T04:20:16.908Z,1.00
2023-06-29T04:22:45.344Z,1.40
2023-06-29T04:25:13.780Z,0.90
2023-06-29T04:27:43.322Z,1.00
2023-06-29T04:30:12.471Z,1.20
2023-06-29T04:32:40.731Z,1.70
2023-06-29T04:35:10.552Z,1.20
2023-06-29T04:37:42.760Z,2.40
2023-06-29T04:42:46.817Z,1.60
2023-06-29T04:45:20.556Z,1.80
2023-06-29T04:47:52.652Z,1.70
2023-06-29T04:50:27.371Z,1.20
2023-06-29T04:52:57.183Z,1.70
2023-06-29T04:55:25.925Z,1.70
2023-06-29T04:57:54.070Z,1.60
2023-06-29T05:00:22.109Z,1.40
2023-06-29T05:02:50.267Z,1.70
2023-06-29T05:05:19.209Z,1.60
2023-06-29T05:07:47.331Z,2.00
2023-06-29T05:10:15.247Z,1.70
2023-06-29T05:12:43.257Z,1.40
2023-06-29T05:15:11.657Z,1.60
2023-06-29T05:17:39.628Z,1.50
2023-06-29T05:20:09.752Z,2.00
2023-06-29T05:22:37.810Z,1.80
2023-06-29T05:25:06.262Z,2.00
2023-06-29T05:27:35.255Z,2.70
2023-06-29T05:30:04.078Z,2.00
2023-06-29T05:32:34.392Z,1.70
2023-06-29T05:35:02.584Z,1.50
2023-06-29T05:37:31.595Z,2.00
2023-06-29T05:39:59.624Z,2.30
2023-06-29T05:42:27.786Z,1.90
2023-06-29T05:44:56.669Z,1.50
2023-06-29T05:47:24.626Z,1.80
2023-06-29T05:49:54.888Z,1.40
2023-06-29T05:52:23.476Z,1.30
2023-06-29T05:54:51.859Z,1.60
2023-06-29T05:57:19.935Z,1.70
2023-06-29T05:59:47.995Z,1.20
2023-06-29T06:02:16.191Z,1.10
2023-06-29T06:04:44.462Z,1.10
2023-06-29T06:07:16.193Z,1.50
2023-06-29T06:09:44.263Z,1.30
2023-06-29T06:12:12.315Z,1.30
2023-06-29T06:14:40.353Z,1.40
2023-06-29T06:17:08.340Z,1.40
2023-06-29T06:19:36.366Z,2.10
2023-06-29T06:22:04.782Z,1.90
2023-06-29T06:24:32.851Z,1.70
2023-06-29T06:27:02.443Z,1.30
2023-06-29T06:29:30.596Z,1.30
2023-06-29T06:31:58.708Z,1.30
2023-06-29T06:34:31.996Z,2.40
2023-06-29T06:37:00.338Z,1.60
2023-06-29T06:39:28.748Z,1.70
2023-06-29T06:41:57.005Z,1.80
2023-06-29T06:44:25.137Z,1.50
2023-06-29T06:46:53.525Z,1.60
2023-06-29T06:49:21.918Z,1.50
2023-06-29T06:51:50.608Z,1.60
2023-06-29T06:54:20.894Z,1.50
2023-06-29T06:59:18.722Z,1.80
2023-06-29T07:01:51.268Z,1.80
2023-06-29T07:04:19.381Z,1.90
2023-06-29T07:06:47.626Z,2.70
2023-06-29T07:09:16.574Z,1.80
2023-06-29T07:11:44.672Z,1.90
2023-06-29T07:14:13.212Z,3.20
2023-06-29T07:16:41.158Z,2.20
2023-06-29T07:24:06.248Z,2.40
2023-06-29T07:24:33.700Z,1.70
2023-06-29T07:27:01.858Z,1.60
2023-06-29T07:29:31.642Z,2.00
2023-06-29T07:31:59.785Z,1.60
2023-06-29T07:34:28.055Z,1.40
2023-06-29T07:36:56.037Z,1.60
2023-06-29T07:39:24.338Z,1.60
2023-06-29T07:41:52.797Z,1.50
2023-06-29T07:44:20.763Z,1.50
2023-06-29T07:46:48.822Z,1.60
2023-06-29T07:49:17.313Z,1.00
2023-06-29T07:51:45.672Z,1.40
2023-06-29T07:54:14.056Z,1.30
2023-06-29T07:59:13.059Z,1.20
2023-06-29T08:01:41.318Z,1.40
2023-06-29T08:04:10.331Z,1.20
2023-06-29T08:06:50.773Z,1.40
2023-06-29T08:09:21.509Z,1.20
2023-06-29T08:11:49.686Z,1.20
2023-06-29T08:14:17.907Z,1.50
2023-06-29T08:16:46.079Z,1.50
2023-06-29T08:19:16.021Z,1.10
2023-06-29T08:21:44.106Z,1.20
2023-06-29T08:24:12.399Z,1.50
2023-06-29T08:26:40.364Z,1.40
2023-06-29T08:29:08.352Z,1.20
2023-06-29T08:31:36.525Z,1.50
2023-06-29T08:34:04.934Z,1.90
2023-06-29T08:36:34.467Z,1.50
2023-06-29T08:39:02.624Z,1.50
2023-06-29T08:41:30.724Z,1.20
2023-06-29T08:43:59.421Z,1.40
2023-06-29T08:46:29.177Z,1.50
2023-06-29T08:48:57.694Z,1.60
2023-06-29T08:51:28.631Z,1.60
2023-06-29T08:53:57.684Z,1.50
2023-06-29T08:56:26.569Z,1.50
2023-06-29T08:58:56.144Z,1.20
2023-06-29T09:01:24.420Z,1.40
2023-06-29T09:03:52.792Z,1.10
2023-06-29T09:06:21.063Z,1.30
2023-06-29T09:08:49.262Z,1.20
2023-06-29T09:11:17.555Z,1.90
2023-06-29T09:13:47.625Z,1.50
2023-06-29T09:16:19.263Z,1.30
2023-06-29T09:18:55.295Z,1.30
2023-06-29T09:21:24.889Z,1.40
2023-06-29T09:23:57.323Z,1.50
2023-06-29T09:26:29.900Z,1.50
2023-06-29T09:29:02.358Z,1.50
2023-06-29T09:31:34.645Z,1.30
2023-06-29T09:34:28.898Z,1.30
2023-06-29T09:36:57.447Z,1.50
2023-06-29T09:39:26.618Z,1.40
2023-06-29T09:41:57.314Z,1.30
2023-06-29T09:44:26.481Z,1.30
2023-06-29T09:49:51.096Z,1.80
2023-06-29T09:52:20.405Z,1.60
2023-06-29T09:54:52.298Z,1.30
2023-06-29T09:57:23.208Z,1.70
2023-06-29T09:59:52.066Z,1.80
2023-06-29T10:02:20.625Z,1.70
2023-06-29T10:04:49.748Z,1.30
2023-06-29T10:07:20.534Z,1.30
2023-06-29T10:09:50.546Z,1.20
2023-06-29T10:12:23.406Z,1.20
2023-06-29T10:14:53.168Z,1.10
2023-06-29T10:17:26.976Z,1.10
2023-06-29T10:19:56.480Z,1.10
2023-06-29T10:22:27.844Z,1.10
2023-06-29T10:25:00.340Z,1.10
2023-06-29T10:27:30.994Z,1.10
2023-06-29T10:30:03.779Z,1.10
2023-06-29T10:32:34.147Z,1.30
2023-06-29T10:35:13.762Z,1.30
2023-06-29T10:37:47.352Z,1.40
2023-06-29T10:40:21.488Z,1.30
2023-06-29T10:42:54.501Z,1.50
2023-06-29T10:45:22.581Z,1.30
2023-06-29T10:47:56.804Z,1.30
2023-06-29T10:50:32.249Z,1.10
2023-06-29T10:53:01.939Z,1.20
2023-06-29T10:55:40.493Z,1.40
2023-06-29T10:58:23.748Z,1.40
2023-06-29T11:00:53.802Z,1.40
2023-06-29T11:03:23.842Z,1.30
2023-06-29T11:05:54.126Z,1.30
2023-06-29T11:08:23.758Z,1.10
2023-06-29T11:10:52.984Z,1.20
2023-06-29T11:13:22.324Z,1.10
2023-06-29T11:15:57.769Z,1.40
2023-06-29T11:18:31.951Z,1.40
2023-06-29T11:21:03.430Z,1.40
2023-06-29T11:23:31.492Z,1.60
2023-06-29T11:26:03.731Z,1.40
2023-06-29T11:28:33.759Z,1.60
2023-06-29T11:31:01.975Z,1.30
2023-06-29T11:36:31.452Z,1.40
2023-06-29T11:39:11.002Z,1.30
2023-06-29T11:41:40.471Z,1.40
2023-06-29T11:44:11.609Z,1.30
2023-06-29T11:46:46.675Z,1.30
2023-06-29T11:49:23.066Z,1.30
2023-06-29T11:51:52.158Z,1.40
2023-06-29T11:54:20.631Z,1.40
2023-06-29T11:56:49.188Z,1.80
2023-06-29T11:59:17.460Z,1.40
2023-06-29T12:01:45.876Z,1.40
2023-06-29T12:04:17.092Z,1.30
2023-06-29T12:06:57.261Z,1.50
2023-06-29T12:09:36.514Z,1.40
2023-06-29T12:12:05.833Z,1.60
2023-06-29T12:14:34.616Z,1.30
2023-06-29T12:19:35.977Z,1.50
2023-06-29T12:22:13.544Z,1.60
2023-06-29T12:24:41.686Z,1.40
2023-06-29T12:27:10.052Z,1.40
2023-06-29T12:29:39.909Z,1.30
2023-06-29T12:32:08.723Z,1.50
2023-06-29T12:34:36.725Z,1.60
2023-06-29T12:37:04.889Z,1.70
2023-06-29T12:39:32.722Z,1.40
2023-06-29T12:42:01.508Z,1.60
2023-06-29T12:44:29.674Z,1.60
2023-06-29T12:46:57.795Z,1.50
2023-06-29T12:49:27.814Z,1.50
2023-06-29T12:51:56.072Z,1.30
2023-06-29T12:54:24.034Z,1.50
2023-06-29T12:56:52.041Z,1.30
2023-06-29T12:59:20.068Z,1.70
2023-06-29T13:01:47.996Z,1.60
2023-06-29T13:04:16.395Z,1.80
2023-06-29T13:06:44.388Z,1.60
2023-06-29T13:09:12.380Z,2.00
2023-06-29T13:11:41.800Z,2.00
2023-06-29T13:14:09.829Z,1.80
2023-06-29T13:16:37.941Z,1.40
2023-06-29T13:19:05.862Z,1.40
2023-06-29T13:21:36.096Z,1.70
2023-06-29T13:24:04.569Z,1.70
2023-06-29T13:26:32.547Z,1.90
2023-06-29T13:29:00.623Z,1.50
2023-06-29T13:31:28.711Z,1.60
2023-06-29T13:33:57.845Z,1.90
2023-06-29T13:36:25.779Z,1.80
2023-06-29T13:38:53.957Z,1.60
2023-06-29T13:41:45.196Z,1.50
2023-06-29T13:44:14.238Z,1.70
2023-06-29T13:46:42.913Z,1.30
2023-06-29T13:49:10.852Z,1.50
2023-06-29T13:51:38.868Z,1.30
2023-06-29T13:54:07.464Z,1.60
2023-06-29T13:56:38.836Z,1.60
2023-06-29T13:59:09.841Z,1.30
2023-06-29T14:01:40.216Z,1.30
2023-06-29T14:04:10.022Z,1.40
2023-06-29T14:06:43.742Z,1.30
2023-06-29T14:09:13.028Z,1.10
2023-06-29T14:11:41.979Z,1.10
2023-06-29T14:14:10.387Z,1.30
2023-06-29T14:16:38.577Z,1.10
2023-06-29T14:19:06.587Z,2.40
2023-06-29T14:21:34.568Z,1.10
2023-06-29T14:24:02.528Z,1.20
2023-06-29T14:26:30.473Z,1.00
2023-06-29T14:28:58.368Z,1.40
2023-06-29T14:31:26.483Z,1.20
2023-06-29T14:33:55.852Z,1.10
2023-06-29T14:36:23.969Z,1.20
2023-06-29T14:38:53.114Z,1.20
2023-06-29T14:41:21.248Z,1.30
2023-06-29T14:43:49.413Z,1.30
2023-06-29T14:46:17.702Z,1.40
2023-06-29T14:48:45.854Z,1.10
2023-06-29T14:51:13.779Z,1.10
2023-06-29T14:53:42.094Z,1.10
2023-06-29T14:56:11.867Z,1.50
2023-06-29T14:58:40.511Z,1.30
2023-06-29T15:01:08.885Z,1.40
2023-06-29T15:03:38.861Z,1.20
2023-06-29T15:06:07.142Z,1.20
2023-06-29T15:08:35.340Z,1.50
2023-06-29T15:11:03.505Z,1.20
2023-06-29T15:13:31.417Z,1.30
2023-06-29T15:15:59.665Z,1.20
2023-06-29T15:18:28.086Z,0.90
2023-06-29T15:20:56.374Z,1.20
2023-06-29T15:23:24.338Z,1.10
2023-06-29T15:25:52.586Z,1.20
2023-06-29T15:28:21.498Z,1.20
2023-06-29T15:30:53.808Z,1.20
2023-06-29T15:33:22.645Z,1.20
2023-06-29T15:35:50.629Z,1.10
2023-06-29T15:38:19.757Z,1.30
2023-06-29T15:40:49.125Z,1.10
2023-06-29T15:43:17.316Z,1.10
2023-06-29T15:45:45.535Z,1.20
2023-06-29T15:48:15.847Z,0.80
2023-06-29T15:50:45.672Z,1.10
2023-06-29T15:53:13.892Z,1.10
2023-06-29T15:55:42.068Z,1.20
2023-06-29T15:58:10.233Z,1.00
2023-06-29T16:00:39.956Z,1.40
2023-06-29T16:03:08.287Z,1.20
2023-06-29T16:05:36.902Z,1.20
2023-06-29T16:08:05.196Z,1.00
2023-06-29T16:10:34.394Z,1.40
2023-06-29T16:13:02.439Z,1.10
2023-06-29T16:15:30.771Z,1.20
2023-06-29T16:17:59.207Z,1.40
2023-06-29T16:20:27.233Z,1.10
2023-06-29T16:22:55.201Z,1.50
2023-06-29T16:25:24.640Z,1.50
2023-06-29T16:27:53.342Z,1.20
2023-06-29T16:30:22.299Z,1.00
2023-06-29T16:32:50.346Z,1.10
2023-06-29T16:35:18.533Z,1.20
2023-06-29T16:37:47.665Z,1.10
2023-06-29T16:40:15.754Z,1.10
2023-06-29T16:42:43.737Z,1.00
2023-06-29T16:45:11.969Z,1.20
2023-06-29T16:47:40.261Z,1.10
2023-06-29T16:50:08.718Z,1.10
2023-06-29T16:52:36.777Z,1.10
2023-06-29T16:55:05.305Z,1.10
2023-06-29T16:57:33.480Z,1.20
2023-06-29T17:00:01.956Z,1.40
2023-06-29T17:02:30.336Z,1.10
2023-06-29T17:04:58.485Z,1.10
2023-06-29T17:07:26.804Z,1.20
2023-06-29T17:09:54.814Z,1.20
2023-06-29T17:12:23.018Z,1.30
2023-06-29T17:14:51.140Z,1.10
2023-06-29T17:17:19.327Z,1.10
2023-06-29T17:19:50.149Z,1.20
2023-06-29T17:22:18.599Z,1.20
2023-06-29T17:24:46.633Z,1.30
2023-06-29T17:27:14.682Z,1.50
2023-06-29T17:29:43.084Z,1.50
2023-06-29T17:32:11.044Z,1.30
2023-06-29T17:34:39.177Z,1.60
2023-06-29T17:37:08.160Z,1.20
2023-06-29T17:39:36.251Z,1.30
2023-06-29T17:42:04.448Z,1.80
2023-06-29T17:44:32.405Z,2.00
2023-06-29T17:47:00.398Z,1.60
2023-06-29T17:49:28.551Z,1.80
2023-06-29T17:51:56.564Z,1.70
2023-06-29T17:54:24.513Z,1.60
2023-06-29T17:56:52.548Z,1.40
2023-06-29T17:59:20.509Z,1.50
2023-06-29T18:01:48.602Z,1.30
2023-06-29T18:04:16.737Z,1.20
2023-06-29T18:06:44.815Z,1.20
2023-06-29T18:09:15.013Z,1.90
2023-06-29T18:11:43.411Z,2.00
2023-06-29T18:14:11.480Z,1.90
2023-06-29T18:16:40.400Z,1.60
2023-06-29T18:19:08.521Z,1.40
2023-06-29T18:21:39.417Z,1.80
2023-06-29T18:24:08.651Z,1.40
2023-06-29T18:26:36.661Z,1.40
2023-06-29T18:29:04.760Z,2.90
2023-06-29T18:31:32.997Z,2.90
2023-06-29T18:34:01.559Z,1.90
2023-06-29T18:36:29.863Z,3.70
2023-06-29T18:38:58.175Z,1.90
2023-06-29T18:41:34.873Z,2.00
2023-06-29T18:44:04.300Z,1.80
2023-06-29T18:46:38.856Z,2.30
2023-06-29T18:49:07.831Z,1.50
2023-06-29T18:51:36.516Z,1.70
2023-06-29T18:54:04.665Z,1.80
2023-06-29T18:56:32.529Z,1.90
2023-06-29T18:59:00.591Z,1.90
2023-06-29T19:01:28.834Z,2.10
2023-06-29T19:03:56.947Z,2.20
2023-06-29T19:06:24.991Z,2.30
2023-06-29T19:08:53.250Z,2.00
2023-06-29T19:11:21.248Z,2.10
2023-06-29T19:13:49.193Z,2.00
2023-06-29T19:16:17.230Z,2.20
2023-06-29T19:18:45.328Z,2.20
2023-06-29T19:21:14.729Z,1.90
2023-06-29T19:23:44.938Z,1.70
2023-06-29T19:26:13.395Z,1.90
2023-06-29T19:28:41.746Z,1.90
2023-06-29T19:31:09.840Z,1.80
2023-06-29T19:33:39.296Z,1.90
2023-06-29T19:36:07.469Z,1.70
2023-06-29T19:38:35.464Z,1.60
2023-06-29T19:41:04.043Z,2.00
2023-06-29T19:43:32.214Z,2.00
2023-06-29T19:46:00.362Z,2.10
2023-06-29T19:48:30.355Z,2.10
2023-06-29T19:50:58.333Z,2.00
2023-06-29T19:53:26.382Z,2.90
2023-06-29T19:55:56.174Z,2.00
2023-06-29T19:58:24.558Z,2.10
2023-06-29T20:00:52.611Z,4.70
2023-06-29T20:03:21.250Z,3.50
2023-06-29T20:05:51.010Z,3.00
2023-06-29T20:08:21.017Z,2.60
2023-06-29T20:10:49.988Z,2.60
2023-06-29T20:13:18.124Z,3.70
2023-06-29T20:15:46.950Z,2.80
2023-06-29T20:18:15.379Z,2.70
2023-06-29T20:20:43.571Z,2.10
2023-06-29T20:23:12.078Z,1.80
2023-06-29T20:25:40.346Z,1.60
2023-06-29T20:28:08.450Z,1.80
2023-06-29T20:30:36.384Z,1.70
2023-06-29T20:33:04.597Z,1.70
2023-06-29T20:35:32.815Z,1.40
2023-06-29T20:38:01.112Z,1.80
2023-06-29T20:40:29.215Z,1.80
2023-06-29T20:43:00.227Z,1.60
2023-06-29T20:45:28.674Z,1.80
2023-06-29T20:47:57.825Z,1.30
2023-06-29T20:50:26.562Z,1.60
2023-06-29T20:52:54.752Z,1.40
2023-06-29T20:55:23.113Z,2.00
2023-06-29T20:57:51.142Z,1.60
2023-06-29T21:00:19.810Z,1.50
2023-06-29T21:02:48.006Z,1.50
2023-06-29T21:05:17.875Z,2.00
2023-06-29T21:07:46.196Z,1.80
2023-06-29T21:10:14.645Z,1.70
2023-06-29T21:12:43.188Z,1.70
2023-06-29T21:15:12.106Z,1.70
2023-06-29T21:17:40.284Z,1.70
2023-06-29T21:20:09.123Z,1.80
2023-06-29T21:22:37.941Z,1.90
2023-06-29T21:25:06.759Z,2.10
2023-06-29T21:27:36.640Z,2.20
2023-06-29T21:30:05.580Z,2.10
2023-06-29T21:32:33.755Z,2.30
2023-06-29T21:35:02.280Z,2.50
2023-06-29T21:37:30.976Z,2.00
2023-06-29T21:39:58.942Z,2.40
2023-06-29T21:42:27.462Z,2.20
2023-06-29T21:44:55.401Z,2.20
2023-06-29T21:47:23.411Z,2.30
2023-06-29T21:49:51.818Z,2.50
2023-06-29T21:52:19.798Z,2.80
2023-06-29T21:54:47.681Z,2.00
2023-06-29T21:57:15.837Z,2.10
2023-06-29T21:59:43.815Z,1.70
2023-06-29T22:02:12.047Z,1.60
2023-06-29T22:04:40.254Z,1.90
2023-06-29T22:09:40.491Z,1.60
2023-06-29T22:12:12.242Z,1.80
2023-06-29T22:14:40.629Z,1.40
2023-06-29T22:17:08.711Z,1.40
2023-06-29T22:19:37.984Z,1.80
2023-06-29T22:22:07.776Z,1.40
2023-06-29T22:24:35.697Z,1.80
2023-06-29T22:27:04.721Z,2.20
2023-06-29T22:29:32.682Z,1.40
2023-06-29T22:32:00.930Z,1.50
2023-06-29T22:34:29.184Z,1.40
2023-06-29T22:36:57.225Z,1.70
2023-06-29T22:39:25.309Z,1.80
2023-06-29T22:41:53.147Z,1.30
2023-06-29T22:44:21.103Z,1.50
2023-06-29T22:46:49.352Z,1.30
2023-06-29T22:49:17.816Z,1.60
2023-06-29T22:51:45.825Z,1.60
2023-06-29T22:54:13.796Z,1.50
2023-06-29T22:56:41.982Z,1.50
2023-06-29T22:59:11.231Z,2.00
2023-06-29T23:01:41.660Z,1.40
2023-06-29T23:04:10.012Z,1.50
2023-06-29T23:06:41.813Z,1.30
2023-06-29T23:09:10.726Z,1.20
2023-06-29T23:11:40.807Z,1.30
2023-06-29T23:14:15.416Z,1.40
2023-06-29T23:16:44.041Z,1.30
2023-06-29T23:19:12.263Z,1.30
2023-06-29T23:21:40.613Z,1.60
2023-06-29T23:24:10.090Z,1.10
2023-06-29T23:26:38.137Z,1.30
2023-06-29T23:29:06.041Z,1.40
2023-06-29T23:31:35.780Z,1.80
2023-06-29T23:34:04.631Z,1.60
2023-06-29T23:36:33.058Z,1.50
2023-06-29T23:39:01.149Z,1.80
2023-06-29T23:41:29.601Z,2.20
2023-06-29T23:44:07.570Z,2.40
2023-06-29T23:46:46.720Z,2.20
2023-06-29T23:49:19.886Z,2.30
2023-06-29T23:51:48.868Z,2.50
2023-06-29T23:54:17.741Z,2.00
2023-06-29T23:56:46.278Z,2.10
2023-06-29T23:59:14.309Z,1.90
